createdAt,value
2023-02-19T00:01:31.366Z,2.90
2023-02-19T00:03:59.508Z,2.92
2023-02-19T00:06:31.206Z,3.00
2023-02-19T00:08:58.033Z,3.20
2023-02-19T00:11:25.486Z,2.47
2023-02-19T00:13:53.243Z,2.83
2023-02-19T00:16:22.338Z,2.60
2023-02-19T00:18:48.929Z,2.80
2023-02-19T00:21:15.974Z,2.63
2023-02-19T00:23:42.459Z,2.50
2023-02-19T00:26:18.130Z,2.35
2023-02-19T00:28:45.565Z,2.53
2023-02-19T00:31:15.741Z,2.40
2023-02-19T00:33:44.000Z,2.28
2023-02-19T00:36:10.645Z,2.15
2023-02-19T00:38:37.743Z,1.92
2023-02-19T00:41:20.036Z,2.08
2023-02-19T00:43:47.361Z,1.90
2023-02-19T00:46:14.224Z,2.20
2023-02-19T00:48:40.795Z,2.03
2023-02-19T00:51:08.970Z,1.92
2023-02-19T00:53:35.672Z,2.00
2023-02-19T00:56:02.195Z,2.00
2023-02-19T00:58:28.761Z,2.20
2023-02-19T01:00:55.198Z,2.20
2023-02-19T01:03:22.690Z,2.00
2023-02-19T01:05:49.330Z,2.20
2023-02-19T01:08:17.269Z,2.35
2023-02-19T01:10:43.802Z,2.00
2023-02-19T01:13:10.327Z,2.17
2023-02-19T01:15:37.075Z,2.13
2023-02-19T01:18:03.713Z,1.90
2023-02-19T01:20:30.276Z,1.80
2023-02-19T01:22:56.698Z,1.95
2023-02-19T01:25:24.577Z,1.75
2023-02-19T01:27:51.070Z,1.90
2023-02-19T01:30:17.741Z,1.98
2023-02-19T01:32:44.331Z,1.80
2023-02-19T01:35:10.824Z,1.80
2023-02-19T01:37:37.411Z,1.50
2023-02-19T01:40:04.111Z,1.58
2023-02-19T01:42:31.913Z,1.30
2023-02-19T01:45:18.705Z,1.50
2023-02-19T01:47:45.245Z,1.50
2023-02-19T01:50:11.835Z,1.65
2023-02-19T01:52:38.471Z,1.52
2023-02-19T01:55:13.559Z,1.65
2023-02-19T01:57:44.230Z,1.42
2023-02-19T02:00:11.970Z,1.52
2023-02-19T02:02:39.149Z,1.58
2023-02-19T02:05:08.870Z,1.48
2023-02-19T02:07:53.862Z,1.80
2023-02-19T02:10:20.623Z,1.42
2023-02-19T02:12:48.852Z,1.60
2023-02-19T02:15:16.461Z,1.27
2023-02-19T02:17:48.645Z,1.33
2023-02-19T02:20:32.165Z,1.40
2023-02-19T02:23:03.427Z,1.40
2023-02-19T02:25:54.029Z,1.00
2023-02-19T02:28:29.028Z,1.00
2023-02-19T02:30:58.943Z,1.20
2023-02-19T02:33:28.552Z,1.13
2023-02-19T02:35:57.266Z,1.17
2023-02-19T02:38:25.975Z,1.27
2023-02-19T02:40:53.898Z,1.10
2023-02-19T02:43:20.365Z,1.30
2023-02-19T02:45:46.856Z,1.23
2023-02-19T02:48:17.839Z,1.40
2023-02-19T02:50:46.278Z,0.90
2023-02-19T02:53:33.293Z,1.27
2023-02-19T02:56:00.561Z,1.20
2023-02-19T02:58:28.105Z,0.93
2023-02-19T03:01:15.265Z,1.20
2023-02-19T03:03:44.127Z,1.20
2023-02-19T03:06:12.021Z,1.17
2023-02-19T03:08:40.509Z,1.00
2023-02-19T03:11:26.557Z,1.00
2023-02-19T03:14:12.852Z,0.90
2023-02-19T03:16:59.295Z,1.00
2023-02-19T03:19:27.742Z,0.90
2023-02-19T03:21:56.724Z,0.88
2023-02-19T03:24:44.094Z,0.80
2023-02-19T03:27:12.407Z,0.80
2023-02-19T03:29:40.158Z,0.88
2023-02-19T03:32:09.909Z,0.80
2023-02-19T03:34:39.103Z,0.90
2023-02-19T03:37:08.641Z,0.80
2023-02-19T03:39:44.242Z,0.70
2023-02-19T03:42:16.242Z,0.70
2023-02-19T03:44:45.536Z,0.70
2023-02-19T03:47:16.092Z,0.50
2023-02-19T03:49:48.666Z,0.55
2023-02-19T03:52:18.760Z,0.80
2023-02-19T03:54:49.294Z,0.60
2023-02-19T03:57:18.817Z,0.60
2023-02-19T03:59:49.019Z,0.60
2023-02-19T04:02:17.122Z,0.55
2023-02-19T04:04:46.022Z,0.63
2023-02-19T04:07:12.865Z,0.60
2023-02-19T04:09:41.745Z,0.70
2023-02-19T04:12:08.511Z,0.70
2023-02-19T04:14:37.243Z,0.50
2023-02-19T04:17:16.541Z,0.60
2023-02-19T04:19:43.022Z,0.60
2023-02-19T04:22:11.244Z,0.70
2023-02-19T04:24:39.185Z,0.70
2023-02-19T04:27:06.070Z,0.80
2023-02-19T04:29:32.597Z,0.75
2023-02-19T04:31:59.113Z,0.90
2023-02-19T04:34:25.622Z,0.70
2023-02-19T04:36:52.125Z,0.90
2023-02-19T04:39:20.208Z,0.90
2023-02-19T04:41:46.683Z,0.90
2023-02-19T04:44:13.224Z,1.10
2023-02-19T04:46:42.682Z,1.02
2023-02-19T04:49:09.495Z,1.00
2023-02-19T04:51:36.085Z,1.20
2023-02-19T04:54:02.546Z,1.33
2023-02-19T04:56:30.383Z,1.48
2023-02-19T04:58:57.089Z,1.60
2023-02-19T05:01:23.894Z,2.55
2023-02-19T05:03:50.393Z,1.80
2023-02-19T05:06:16.848Z,1.60
2023-02-19T05:08:43.387Z,1.60
2023-02-19T05:11:10.966Z,1.70
2023-02-19T05:13:39.583Z,1.50
2023-02-19T05:16:07.433Z,1.55
2023-02-19T05:18:34.670Z,1.38
2023-02-19T05:21:04.034Z,1.55
2023-02-19T05:23:30.496Z,1.42
2023-02-19T05:25:56.953Z,1.50
2023-02-19T05:28:28.650Z,1.58
2023-02-19T05:30:57.244Z,1.30
2023-02-19T05:33:24.559Z,1.40
2023-02-19T05:35:52.183Z,1.60
2023-02-19T05:38:18.774Z,1.50
2023-02-19T05:40:45.420Z,1.70
2023-02-19T05:43:12.127Z,1.75
2023-02-19T05:45:38.602Z,1.92
2023-02-19T05:48:07.091Z,1.77
2023-02-19T05:50:34.580Z,2.00
2023-02-19T05:53:01.635Z,2.00
2023-02-19T05:55:28.134Z,1.98
2023-02-19T05:57:54.639Z,2.22
2023-02-19T06:00:21.475Z,1.63
2023-02-19T06:02:48.114Z,2.08
2023-02-19T06:05:15.971Z,2.20
2023-02-19T06:07:43.051Z,2.22
2023-02-19T06:10:10.297Z,2.33
2023-02-19T06:12:36.811Z,2.35
2023-02-19T06:15:04.640Z,2.03
2023-02-19T06:17:31.099Z,2.58
2023-02-19T06:19:57.628Z,2.40
2023-02-19T06:22:25.618Z,2.28
2023-02-19T06:24:52.459Z,2.33
2023-02-19T06:27:19.034Z,2.63
2023-02-19T06:29:45.531Z,2.13
2023-02-19T06:32:12.137Z,2.10
2023-02-19T06:34:38.745Z,2.50
2023-02-19T06:37:05.157Z,2.63
2023-02-19T06:39:32.979Z,3.00
2023-02-19T06:41:59.400Z,2.90
2023-02-19T06:44:25.995Z,2.80
2023-02-19T06:46:54.856Z,2.92
2023-02-19T06:49:21.449Z,2.38
2023-02-19T06:51:48.055Z,2.53
2023-02-19T06:54:14.635Z,2.85
2023-02-19T06:56:42.627Z,2.25
2023-02-19T06:59:10.060Z,2.58
2023-02-19T07:01:36.857Z,2.40
2023-02-19T07:04:03.949Z,2.47
2023-02-19T07:06:30.818Z,2.35
2023-02-19T07:08:57.709Z,3.05
2023-02-19T07:11:24.764Z,2.25
2023-02-19T07:13:56.208Z,2.90
2023-02-19T07:16:23.194Z,2.60
2023-02-19T07:18:49.917Z,2.33
2023-02-19T07:21:16.867Z,2.58
2023-02-19T07:23:43.818Z,2.67
2023-02-19T07:26:11.176Z,2.60
2023-02-19T07:28:37.707Z,3.10
2023-02-19T07:31:05.881Z,3.28
2023-02-19T07:33:32.437Z,3.22
2023-02-19T07:35:58.882Z,3.40
2023-02-19T07:38:25.829Z,3.15
2023-02-19T07:40:52.382Z,3.10
2023-02-19T07:43:19.353Z,3.00
2023-02-19T07:45:46.034Z,3.00
2023-02-19T07:48:14.224Z,2.47
2023-02-19T07:50:40.923Z,2.58
2023-02-19T07:53:07.799Z,2.45
2023-02-19T07:55:34.380Z,2.45
2023-02-19T07:58:00.943Z,2.90
2023-02-19T08:00:27.968Z,2.80
2023-02-19T08:03:00.479Z,2.80
2023-02-19T08:05:28.718Z,2.90
2023-02-19T08:07:55.262Z,2.50
2023-02-19T08:10:40.745Z,2.90
2023-02-19T08:13:25.586Z,3.00
2023-02-19T08:15:52.806Z,3.53
2023-02-19T08:18:20.596Z,3.05
2023-02-19T08:20:48.538Z,3.72
2023-02-19T08:23:15.084Z,3.58
2023-02-19T08:25:41.973Z,3.97
2023-02-19T08:28:09.792Z,4.03
2023-02-19T08:30:38.303Z,4.05
2023-02-19T08:33:06.210Z,4.38
2023-02-19T08:35:35.424Z,4.60
2023-02-19T08:38:04.106Z,4.97
2023-02-19T08:40:30.686Z,4.70
2023-02-19T08:43:01.808Z,4.80
2023-02-19T08:45:28.282Z,4.70
2023-02-19T08:47:54.809Z,4.70
2023-02-19T08:50:22.439Z,5.07
2023-02-19T08:52:48.962Z,5.13
2023-02-19T08:55:17.036Z,5.40
2023-02-19T08:57:43.961Z,5.10
2023-02-19T09:00:11.062Z,4.80
2023-02-19T09:02:37.568Z,5.55
2023-02-19T09:05:05.579Z,5.03
2023-02-19T09:07:32.093Z,4.18
2023-02-19T09:09:58.798Z,4.50
2023-02-19T09:12:30.538Z,5.03
2023-02-19T09:14:57.006Z,5.00
2023-02-19T09:17:23.495Z,4.13
2023-02-19T09:19:51.103Z,5.05
2023-02-19T09:22:17.576Z,5.15
2023-02-19T09:24:46.905Z,5.68
2023-02-19T09:27:14.929Z,4.65
2023-02-19T09:29:42.938Z,5.30
2023-02-19T09:32:09.724Z,4.47
2023-02-19T09:34:36.269Z,4.47
2023-02-19T09:37:02.746Z,4.07
2023-02-19T09:39:29.447Z,4.70
2023-02-19T09:41:57.947Z,4.03
2023-02-19T09:44:27.673Z,3.63
2023-02-19T09:46:56.147Z,3.53
2023-02-19T09:49:25.993Z,3.10
2023-02-19T09:51:54.490Z,2.85
2023-02-19T09:54:22.493Z,2.60
2023-02-19T09:56:49.173Z,2.40
2023-02-19T09:59:19.990Z,2.75
2023-02-19T10:01:47.916Z,3.28
2023-02-19T10:04:15.789Z,2.97
2023-02-19T10:06:42.644Z,3.40
2023-02-19T10:09:13.687Z,3.65
2023-02-19T10:11:40.261Z,3.60
2023-02-19T10:14:09.427Z,3.90
2023-02-19T10:16:40.440Z,3.67
2023-02-19T10:19:09.353Z,3.63
2023-02-19T10:21:37.766Z,3.75
2023-02-19T10:24:05.368Z,4.78
2023-02-19T10:26:35.306Z,4.13
2023-02-19T10:29:01.711Z,4.03
2023-02-19T10:31:28.483Z,3.88
2023-02-19T10:33:55.745Z,4.10
2023-02-19T10:36:26.750Z,4.72
2023-02-19T10:38:54.844Z,4.60
2023-02-19T10:41:22.465Z,4.63
2023-02-19T10:43:52.883Z,3.60
2023-02-19T10:46:21.590Z,3.10
2023-02-19T10:48:51.835Z,3.72
2023-02-19T10:51:21.853Z,3.65
2023-02-19T10:53:49.537Z,4.05
2023-02-19T10:56:23.442Z,4.97
2023-02-19T11:01:19.611Z,5.00
2023-02-19T11:03:47.156Z,5.18
2023-02-19T11:06:14.893Z,6.35
2023-02-19T11:08:46.846Z,6.00
2023-02-19T11:11:23.351Z,6.47
2023-02-19T11:13:49.960Z,6.57
2023-02-19T11:16:16.444Z,6.50
2023-02-19T11:18:45.136Z,6.95
2023-02-19T11:21:24.734Z,7.60
2023-02-19T11:23:51.344Z,7.07
2023-02-19T11:26:18.894Z,7.10
2023-02-19T11:28:55.061Z,8.00
2023-02-19T11:31:25.698Z,7.25
2023-02-19T11:33:55.618Z,6.65
2023-02-19T11:36:33.138Z,7.00
2023-02-19T11:39:02.102Z,7.13
2023-02-19T11:41:49.583Z,6.88
2023-02-19T11:44:25.803Z,7.30
2023-02-19T11:46:59.397Z,7.35
2023-02-19T11:49:33.411Z,6.90
2023-02-19T11:52:07.557Z,7.38
2023-02-19T11:54:55.990Z,7.82
2023-02-19T11:57:28.659Z,7.25
2023-02-19T12:00:02.153Z,6.85
2023-02-19T12:02:47.310Z,8.07
2023-02-19T12:05:26.348Z,7.43
2023-02-19T12:08:11.566Z,7.68
2023-02-19T12:10:44.389Z,6.47
2023-02-19T12:13:15.272Z,5.70
2023-02-19T12:15:49.891Z,6.53
2023-02-19T12:18:33.944Z,7.05
2023-02-19T12:21:06.338Z,6.40
2023-02-19T12:23:39.031Z,4.43
2023-02-19T12:26:09.355Z,5.25
2023-02-19T12:28:50.699Z,5.00
2023-02-19T12:31:28.563Z,5.15
2023-02-19T12:34:15.815Z,6.28
2023-02-19T12:36:50.887Z,6.20
2023-02-19T12:39:23.666Z,5.88
2023-02-19T12:41:56.732Z,5.78
2023-02-19T12:44:28.062Z,5.60
2023-02-19T12:46:58.325Z,5.15
2023-02-19T12:49:26.422Z,5.70
2023-02-19T12:51:57.585Z,4.85
2023-02-19T12:54:26.152Z,4.40
2023-02-19T12:56:55.216Z,4.85
2023-02-19T12:59:24.399Z,4.80
2023-02-19T13:01:52.710Z,4.75
2023-02-19T13:04:34.492Z,4.82
2023-02-19T13:07:02.351Z,4.93
2023-02-19T13:09:31.742Z,5.05
2023-02-19T13:12:00.247Z,5.70
2023-02-19T13:14:28.976Z,5.13
2023-02-19T13:16:57.618Z,6.13
2023-02-19T13:19:24.139Z,5.32
2023-02-19T13:22:14.556Z,5.75
2023-02-19T13:24:42.010Z,5.20
2023-02-19T13:27:28.327Z,4.63
2023-02-19T13:30:05.722Z,4.68
2023-02-19T13:32:41.684Z,4.28
2023-02-19T13:35:18.024Z,4.03
2023-02-19T13:37:46.275Z,4.10
2023-02-19T13:40:20.076Z,4.75
2023-02-19T13:45:21.872Z,4.82
2023-02-19T13:47:49.609Z,4.75
2023-02-19T13:50:20.541Z,4.47
2023-02-19T13:52:48.755Z,4.30
2023-02-19T13:55:33.888Z,4.25
2023-02-19T13:58:15.260Z,4.32
2023-02-19T14:00:49.458Z,4.15
2023-02-19T14:03:34.028Z,4.00
2023-02-19T14:06:02.686Z,3.85
2023-02-19T14:08:47.864Z,3.97
2023-02-19T14:11:15.115Z,3.70
2023-02-19T14:14:09.903Z,4.60
2023-02-19T14:16:54.047Z,4.20
2023-02-19T14:21:49.912Z,3.35
2023-02-19T14:24:17.873Z,3.08
2023-02-19T14:26:44.440Z,3.83
2023-02-19T14:29:13.424Z,3.15
2023-02-19T14:31:40.536Z,3.20
2023-02-19T14:34:15.774Z,5.18
2023-02-19T14:36:45.052Z,2.90
2023-02-19T14:39:14.418Z,11.35
2023-02-19T14:41:45.142Z,2.83
2023-02-19T14:44:14.856Z,3.00
2023-02-19T14:46:45.041Z,2.53
2023-02-19T14:49:15.349Z,2.70
2023-02-19T14:51:44.238Z,2.65
2023-02-19T14:54:14.040Z,2.40
2023-02-19T14:56:43.840Z,2.20
2023-02-19T14:59:24.054Z,3.15
2023-02-19T15:01:54.306Z,3.50
2023-02-19T15:04:22.320Z,2.17
2023-02-19T15:06:49.417Z,1.67
2023-02-19T15:09:16.360Z,1.83
2023-02-19T15:11:44.611Z,2.15
2023-02-19T15:14:16.977Z,1.95
2023-02-19T15:16:43.577Z,3.17
2023-02-19T15:19:10.461Z,2.13
2023-02-19T15:21:38.656Z,2.15
2023-02-19T15:24:07.679Z,2.75
2023-02-19T15:26:35.417Z,2.78
2023-02-19T15:29:04.354Z,7.35
2023-02-19T15:31:30.951Z,1.58
2023-02-19T15:33:57.553Z,2.42
2023-02-19T15:36:25.983Z,2.90
2023-02-19T15:38:54.729Z,1.88
2023-02-19T15:41:23.224Z,4.57
2023-02-19T15:43:53.948Z,3.00
2023-02-19T15:46:22.572Z,2.25
2023-02-19T15:48:51.079Z,7.82
2023-02-19T15:51:21.297Z,7.75
2023-02-19T15:53:49.284Z,1.92
2023-02-19T15:56:19.724Z,2.58
2023-02-19T15:58:48.417Z,1.73
2023-02-19T16:01:16.588Z,2.10
2023-02-19T16:03:44.556Z,2.63
2023-02-19T16:06:14.806Z,2.55
2023-02-19T16:08:42.393Z,2.03
2023-02-19T16:11:23.754Z,1.90
2023-02-19T16:13:50.927Z,3.00
2023-02-19T16:16:20.861Z,4.32
2023-02-19T16:18:49.717Z,4.40
2023-02-19T16:21:17.338Z,3.80
2023-02-19T16:23:45.036Z,3.13
2023-02-19T16:26:11.662Z,6.60
2023-02-19T16:28:39.408Z,5.43
2023-02-19T16:31:06.890Z,9.45
2023-02-19T16:33:35.743Z,3.90
2023-02-19T16:36:21.038Z,5.05
2023-02-19T16:39:03.831Z,3.85
2023-02-19T16:41:30.614Z,3.40
2023-02-19T16:44:03.099Z,3.95
2023-02-19T16:46:29.596Z,7.43
2023-02-19T16:48:56.126Z,13.65
2023-02-19T16:51:24.597Z,24.65
2023-02-19T16:53:51.112Z,5.28
2023-02-19T16:56:21.297Z,6.15
2023-02-19T16:58:47.877Z,7.93
2023-02-19T17:01:23.453Z,4.57
2023-02-19T17:03:50.303Z,5.97
2023-02-19T17:06:17.323Z,4.15
2023-02-19T17:08:44.350Z,4.30
2023-02-19T17:11:12.182Z,3.65
2023-02-19T17:13:40.473Z,3.45
2023-02-19T17:16:07.381Z,3.20
2023-02-19T17:18:33.881Z,2.90
2023-02-19T17:21:02.275Z,2.42
2023-02-19T17:23:28.738Z,3.40
2023-02-19T17:25:55.365Z,2.85
2023-02-19T17:28:21.849Z,3.20
2023-02-19T17:30:49.723Z,2.45
2023-02-19T17:33:17.695Z,3.28
2023-02-19T17:35:44.892Z,2.50
2023-02-19T17:38:12.243Z,3.30
2023-02-19T17:40:38.753Z,3.13
2023-02-19T17:43:05.682Z,3.05
2023-02-19T17:45:32.514Z,3.13
2023-02-19T17:48:00.612Z,3.22
2023-02-19T17:50:27.994Z,3.60
2023-02-19T17:52:54.451Z,3.35
2023-02-19T17:55:21.029Z,3.47
2023-02-19T17:57:48.056Z,2.97
2023-02-19T18:00:15.912Z,3.28
2023-02-19T18:02:42.683Z,3.50
2023-02-19T18:05:11.041Z,3.25
2023-02-19T18:07:38.505Z,3.45
2023-02-19T18:10:05.682Z,3.17
2023-02-19T18:12:32.298Z,3.88
2023-02-19T18:14:58.937Z,2.72
2023-02-19T18:17:25.832Z,3.72
2023-02-19T18:19:52.700Z,3.55
2023-02-19T18:22:20.982Z,3.33
2023-02-19T18:24:47.978Z,3.90
2023-02-19T18:27:15.300Z,3.70
2023-02-19T18:29:41.855Z,4.00
2023-02-19T18:32:08.757Z,3.85
2023-02-19T18:34:35.600Z,4.30
2023-02-19T18:37:02.192Z,4.50
2023-02-19T18:39:30.124Z,3.90
2023-02-19T18:41:58.161Z,4.60
2023-02-19T18:44:25.249Z,5.03
2023-02-19T18:46:52.146Z,4.05
2023-02-19T18:49:18.728Z,4.57
2023-02-19T18:51:46.086Z,4.60
2023-02-19T18:54:12.944Z,5.00
2023-02-19T18:56:44.701Z,4.65
2023-02-19T18:59:11.754Z,4.95
2023-02-19T19:01:38.342Z,4.75
2023-02-19T19:04:05.387Z,5.03
2023-02-19T19:06:32.220Z,5.00
2023-02-19T19:08:58.827Z,4.90
2023-02-19T19:11:25.594Z,5.05
2023-02-19T19:13:53.843Z,5.00
2023-02-19T19:16:22.918Z,5.60
2023-02-19T19:18:49.508Z,4.82
2023-02-19T19:21:16.167Z,5.55
2023-02-19T19:23:42.805Z,4.93
2023-02-19T19:26:10.854Z,5.32
2023-02-19T19:28:40.626Z,5.45
2023-02-19T19:31:08.657Z,5.93
2023-02-19T19:33:35.282Z,6.00
2023-02-19T19:36:01.933Z,5.60
2023-02-19T19:38:28.428Z,5.05
2023-02-19T19:40:54.916Z,5.93
2023-02-19T19:43:21.440Z,5.20
2023-02-19T19:45:48.175Z,6.18
2023-02-19T19:48:16.061Z,5.70
2023-02-19T19:50:42.626Z,6.65
2023-02-19T19:53:09.140Z,6.47
2023-02-19T19:55:35.688Z,6.85
2023-02-19T19:58:02.235Z,6.57
2023-02-19T20:00:28.950Z,7.15
2023-02-19T20:02:55.634Z,7.93
2023-02-19T20:05:23.811Z,7.38
2023-02-19T20:07:50.435Z,8.10
2023-02-19T20:10:17.409Z,8.00
2023-02-19T20:12:44.016Z,8.48
2023-02-19T20:15:10.932Z,8.70
2023-02-19T20:17:37.471Z,8.30
2023-02-19T20:20:04.513Z,9.93
2023-02-19T20:22:32.476Z,9.45
2023-02-19T20:24:58.984Z,9.07
2023-02-19T20:27:25.452Z,8.90
2023-02-19T20:29:52.149Z,8.25
2023-02-19T20:32:20.599Z,8.23
2023-02-19T20:34:47.313Z,7.95
2023-02-19T20:37:14.236Z,8.30
2023-02-19T20:39:42.131Z,7.47
2023-02-19T20:42:08.846Z,7.95
2023-02-19T20:44:35.487Z,7.50
2023-02-19T20:47:02.166Z,8.57
2023-02-19T20:49:29.386Z,7.45
2023-02-19T20:51:58.096Z,7.57
2023-02-19T20:54:25.508Z,7.40
2023-02-19T20:56:54.649Z,7.55
2023-02-19T20:59:22.477Z,7.45
2023-02-19T21:01:49.359Z,6.82
2023-02-19T21:04:16.317Z,6.93
2023-02-19T21:06:42.867Z,8.07
2023-02-19T21:09:09.442Z,8.25
2023-02-19T21:11:36.014Z,7.85
2023-02-19T21:14:03.988Z,7.82
2023-02-19T21:16:31.380Z,6.38
2023-02-19T21:18:58.331Z,7.25
2023-02-19T21:21:26.140Z,7.32
2023-02-19T21:23:52.808Z,7.30
2023-02-19T21:26:19.480Z,7.32
2023-02-19T21:28:46.103Z,6.82
2023-02-19T21:31:14.295Z,7.30
2023-02-19T21:33:40.872Z,7.60
2023-02-19T21:36:07.898Z,7.72
2023-02-19T21:38:34.455Z,7.70
2023-02-19T21:41:01.441Z,7.90
2023-02-19T21:43:28.352Z,8.65
2023-02-19T21:45:54.966Z,7.97
2023-02-19T21:48:22.866Z,8.35
2023-02-19T21:50:49.426Z,8.40
2023-02-19T21:53:15.935Z,8.50
2023-02-19T21:55:57.523Z,8.40
2023-02-19T21:58:25.202Z,7.38
2023-02-19T22:00:53.856Z,8.82
2023-02-19T22:03:20.590Z,7.82
2023-02-19T22:05:48.491Z,8.55
2023-02-19T22:08:15.929Z,8.63
2023-02-19T22:10:42.621Z,8.85
2023-02-19T22:13:09.251Z,8.73
2023-02-19T22:15:36.102Z,8.27
2023-02-19T22:18:02.852Z,8.85
2023-02-19T22:20:29.494Z,8.95
2023-02-19T22:22:57.343Z,8.00
2023-02-19T22:25:23.845Z,9.35
2023-02-19T22:27:50.319Z,8.82
2023-02-19T22:30:17.105Z,9.38
2023-02-19T22:32:43.672Z,8.80
2023-02-19T22:35:10.260Z,8.52
2023-02-19T22:37:36.737Z,9.25
2023-02-19T22:40:05.101Z,9.13
2023-02-19T22:42:31.629Z,8.73
2023-02-19T22:44:58.176Z,9.15
2023-02-19T22:47:24.638Z,8.20
2023-02-19T22:49:51.403Z,8.65
2023-02-19T22:52:19.364Z,8.30
2023-02-19T22:54:46.779Z,8.30
2023-02-19T22:57:14.751Z,7.72
2023-02-19T22:59:41.395Z,8.15
2023-02-19T23:02:07.937Z,7.53
2023-02-19T23:04:34.571Z,6.70
2023-02-19T23:07:01.154Z,6.88
2023-02-19T23:09:28.634Z,6.97
2023-02-19T23:12:01.021Z,6.13
2023-02-19T23:14:28.983Z,5.75
2023-02-19T23:16:55.481Z,6.25
2023-02-19T23:19:22.087Z,6.00
2023-02-19T23:21:48.756Z,5.95
2023-02-19T23:24:15.296Z,6.47
2023-02-19T23:26:42.628Z,6.00
2023-02-19T23:29:09.107Z,6.40
2023-02-19T23:31:36.942Z,6.00
2023-02-19T23:34:03.756Z,6.30
2023-02-19T23:36:30.265Z,5.75
2023-02-19T23:38:56.769Z,5.45
2023-02-19T23:41:23.396Z,5.95
2023-02-19T23:43:49.936Z,5.70
2023-02-19T23:46:17.655Z,5.80
2023-02-19T23:48:46.146Z,5.22
2023-02-19T23:51:12.638Z,4.88
2023-02-19T23:53:39.158Z,5.18
2023-02-19T23:56:06.159Z,5.50
2023-02-19T23:58:32.657Z,5.53
